createdAt,value
2016-08-12T00:01:29.577Z,1009.96
2016-08-12T00:16:24.991Z,1009.7
2016-08-12T00:31:27.080Z,1009.63
2016-08-12T00:46:29.944Z,1009.52
2016-08-12T01:01:29.636Z,1009.51
2016-08-12T01:16:25.004Z,1009.31
2016-08-12T01:31:29.605Z,1009.23
2016-08-12T01:46:25.024Z,1009.28
2016-08-12T02:01:25.039Z,1009.56
2016-08-12T02:16:27.097Z,1009.59
2016-08-12T02:31:25.060Z,1009.57
2016-08-12T02:46:27.067Z,1009.58
2016-08-12T03:01:25.078Z,1009.81
2016-08-12T03:16:36.388Z,1010.02
2016-08-12T03:31:30.164Z,1010.04
2016-08-12T03:46:31.230Z,1010.26
2016-08-12T04:01:29.735Z,1010.32
2016-08-12T04:16:25.131Z,1010.41
2016-08-12T04:31:25.232Z,1010.41
2016-08-12T04:46:25.155Z,1010.81
2016-08-12T05:01:29.781Z,1009.43
2016-08-12T05:16:25.167Z,1009.13
2016-08-12T05:31:25.225Z,1008.82
2016-08-12T05:46:25.184Z,1008.35
2016-08-12T06:01:31.503Z,1008.07
2016-08-12T06:16:29.802Z,1007.82
2016-08-12T06:31:30.205Z,1007.63
2016-08-12T06:46:25.213Z,1007.31
2016-08-12T07:01:25.224Z,1007.58
2016-08-12T07:16:30.194Z,1007.71
2016-08-12T07:31:25.235Z,1007.93
2016-08-12T07:46:25.410Z,1008
2016-08-12T08:01:31.570Z,1008.06
2016-08-12T08:16:31.476Z,1008.11
2016-08-12T08:31:33.502Z,1008.24
2016-08-12T08:46:31.558Z,1007.97
2016-08-12T09:01:38.184Z,1008.19
2016-08-12T09:16:38.226Z,1008.14
2016-08-12T09:31:29.338Z,1008.34
2016-08-12T09:46:25.326Z,1008.23
2016-08-12T10:01:29.967Z,1008.13
2016-08-12T10:16:29.937Z,1008.37
2016-08-12T10:31:29.942Z,1008.3
2016-08-12T10:46:25.366Z,1008.44
2016-08-12T11:01:25.378Z,1008.34
2016-08-12T11:16:25.436Z,1008.57
2016-08-12T11:31:31.607Z,1008.39
2016-08-12T11:46:25.407Z,1008.54
2016-08-12T12:01:30.014Z,1008.56
2016-08-12T12:16:25.482Z,1008.83
2016-08-12T12:31:30.024Z,1008.63
2016-08-12T12:46:32.499Z,1008.81
2016-08-12T13:01:38.371Z,1008.87
2016-08-12T13:16:29.489Z,1008.97
2016-08-12T13:31:41.806Z,1008.88
2016-08-12T13:46:25.467Z,1008.97
2016-08-12T14:01:29.689Z,1009.21
2016-08-12T14:16:30.467Z,1009.27
2016-08-12T14:31:25.482Z,1009.16
2016-08-12T14:46:25.493Z,1009.2
2016-08-12T15:01:25.494Z,1009.16
2016-08-12T15:16:25.496Z,1009.32
2016-08-12T15:31:25.543Z,1009.46
2016-08-12T15:46:30.109Z,1009.55
2016-08-12T16:01:30.450Z,1009.72
2016-08-12T16:16:43.960Z,1009.81
2016-08-12T16:31:25.562Z,1009.78
2016-08-12T16:46:25.551Z,1009.86
2016-08-12T17:01:30.146Z,1009.86
2016-08-12T17:16:30.133Z,1009.84
2016-08-12T17:31:25.599Z,1009.84
2016-08-12T17:46:30.180Z,1009.9
2016-08-12T18:01:25.578Z,1009.95
2016-08-12T18:16:25.604Z,1009.94
2016-08-12T18:31:25.652Z,1010.12
2016-08-12T18:46:32.672Z,1010
2016-08-12T19:01:25.638Z,1010.19
2016-08-12T19:16:25.631Z,1010.22
2016-08-12T19:31:25.701Z,1010.35
2016-08-12T19:46:30.078Z,1010.32
2016-08-12T20:01:25.664Z,1010.33
2016-08-12T20:16:30.708Z,1010.42
2016-08-12T20:31:25.751Z,1010.37
2016-08-12T20:46:25.694Z,1010.37
2016-08-12T21:01:25.704Z,1010.32
2016-08-12T21:16:30.647Z,1010.42
2016-08-12T21:31:25.760Z,1010.34
2016-08-12T21:46:38.632Z,1010.22
2016-08-12T22:01:25.735Z,1010.16
2016-08-12T22:16:25.746Z,1009.93
2016-08-12T22:31:25.812Z,1010
2016-08-12T22:46:25.755Z,1009.88
2016-08-12T23:01:25.765Z,1009.91
2016-08-12T23:16:25.766Z,1009.88
2016-08-12T23:31:25.830Z,1009.72
2016-08-12T23:46:30.377Z,1009.67
